sensor_id;sensor_type;location;lat;lon;timestamp;P1;durP1;ratioP1;P2;durP2;ratioP2
17890;SDS011;9071;48.220;14.480;2023-08-07T00:01:38;0.80;;;0.80;;
17890;SDS011;9071;48.220;14.480;2023-08-07T00:06:42;3.03;;;1.07;;
17890;SDS011;9071;48.220;14.480;2023-08-07T00:11:44;1.33;;;1.13;;
17890;SDS011;9071;48.220;14.480;2023-08-07T00:16:46;1.77;;;1.20;;
17890;SDS011;9071;48.220;14.480;2023-08-07T00:21:50;3.10;;;1.00;;
17890;SDS011;9071;48.220;14.480;2023-08-07T00:26:52;1.80;;;1.13;;
17890;SDS011;9071;48.220;14.480;2023-08-07T00:31:54;1.83;;;0.97;;
17890;SDS011;9071;48.220;14.480;2023-08-07T00:36:57;3.37;;;1.20;;
17890;SDS011;9071;48.220;14.480;2023-08-07T00:41:59;2.40;;;0.93;;
17890;SDS011;9071;48.220;14.480;2023-08-07T00:47:02;1.40;;;0.97;;
17890;SDS011;9071;48.220;14.480;2023-08-07T00:52:06;1.10;;;0.90;;
17890;SDS011;9071;48.220;14.480;2023-08-07T00:57:09;1.40;;;1.10;;
17890;SDS011;9071;48.220;14.480;2023-08-07T01:02:15;2.67;;;1.20;;
17890;SDS011;9071;48.220;14.480;2023-08-07T01:07:19;2.07;;;1.03;;
17890;SDS011;9071;48.220;14.480;2023-08-07T01:12:22;2.37;;;1.03;;
17890;SDS011;9071;48.220;14.480;2023-08-07T01:17:30;1.87;;;1.10;;
17890;SDS011;9071;48.220;14.480;2023-08-07T01:22:35;2.00;;;1.10;;
17890;SDS011;9071;48.220;14.480;2023-08-07T01:27:40;2.27;;;1.30;;
17890;SDS011;9071;48.220;14.480;2023-08-07T01:32:49;1.53;;;1.03;;
17890;SDS011;9071;48.220;14.480;2023-08-07T01:38:00;2.20;;;0.97;;
17890;SDS011;9071;48.220;14.480;2023-08-07T01:43:03;3.53;;;1.13;;
17890;SDS011;9071;48.220;14.480;2023-08-07T01:48:06;2.53;;;0.90;;
17890;SDS011;9071;48.220;14.480;2023-08-07T01:53:09;2.20;;;1.17;;
17890;SDS011;9071;48.220;14.480;2023-08-07T01:58:11;1.87;;;1.10;;
17890;SDS011;9071;48.220;14.480;2023-08-07T02:03:13;2.83;;;1.00;;
17890;SDS011;9071;48.220;14.480;2023-08-07T02:08:17;2.07;;;1.00;;
17890;SDS011;9071;48.220;14.480;2023-08-07T02:13:19;1.57;;;1.00;;
17890;SDS011;9071;48.220;14.480;2023-08-07T02:18:21;2.47;;;1.17;;
17890;SDS011;9071;48.220;14.480;2023-08-07T02:23:24;1.50;;;1.13;;
17890;SDS011;9071;48.220;14.480;2023-08-07T02:28:28;2.73;;;1.30;;
17890;SDS011;9071;48.220;14.480;2023-08-07T02:33:30;1.83;;;1.10;;
17890;SDS011;9071;48.220;14.480;2023-08-07T02:38:34;1.43;;;1.00;;
17890;SDS011;9071;48.220;14.480;2023-08-07T02:43:36;1.83;;;1.00;;
17890;SDS011;9071;48.220;14.480;2023-08-07T02:48:38;2.53;;;1.20;;
17890;SDS011;9071;48.220;14.480;2023-08-07T02:53:42;1.60;;;0.97;;
17890;SDS011;9071;48.220;14.480;2023-08-07T02:58:44;3.00;;;1.37;;
17890;SDS011;9071;48.220;14.480;2023-08-07T03:03:46;1.90;;;0.90;;
17890;SDS011;9071;48.220;14.480;2023-08-07T03:08:49;1.00;;;0.90;;
17890;SDS011;9071;48.220;14.480;2023-08-07T03:13:51;1.90;;;1.27;;
17890;SDS011;9071;48.220;14.480;2023-08-07T03:18:53;1.50;;;1.00;;
17890;SDS011;9071;48.220;14.480;2023-08-07T03:23:57;1.57;;;1.00;;
17890;SDS011;9071;48.220;14.480;2023-08-07T03:28:59;1.17;;;1.07;;
17890;SDS011;9071;48.220;14.480;2023-08-07T03:34:01;2.10;;;1.10;;
17890;SDS011;9071;48.220;14.480;2023-08-07T03:39:04;3.20;;;1.40;;
17890;SDS011;9071;48.220;14.480;2023-08-07T03:44:06;1.77;;;1.03;;
17890;SDS011;9071;48.220;14.480;2023-08-07T03:49:08;1.77;;;1.17;;
17890;SDS011;9071;48.220;14.480;2023-08-07T03:54:12;2.03;;;1.20;;
17890;SDS011;9071;48.220;14.480;2023-08-07T03:59:14;1.53;;;0.87;;
17890;SDS011;9071;48.220;14.480;2023-08-07T04:04:16;2.20;;;1.13;;
17890;SDS011;9071;48.220;14.480;2023-08-07T04:09:19;1.43;;;1.00;;
17890;SDS011;9071;48.220;14.480;2023-08-07T04:14:21;1.90;;;0.83;;
17890;SDS011;9071;48.220;14.480;2023-08-07T04:19:24;1.90;;;0.90;;
17890;SDS011;9071;48.220;14.480;2023-08-07T04:24:27;1.40;;;1.00;;
17890;SDS011;9071;48.220;14.480;2023-08-07T04:29:29;1.97;;;0.83;;
17890;SDS011;9071;48.220;14.480;2023-08-07T04:34:31;1.17;;;0.90;;
17890;SDS011;9071;48.220;14.480;2023-08-07T04:39:34;1.20;;;0.87;;
17890;SDS011;9071;48.220;14.480;2023-08-07T04:44:37;6.27;;;1.57;;
17890;SDS011;9071;48.220;14.480;2023-08-07T04:49:39;2.40;;;0.70;;
17890;SDS011;9071;48.220;14.480;2023-08-07T04:54:42;1.40;;;0.80;;
17890;SDS011;9071;48.220;14.480;2023-08-07T04:59:44;1.30;;;0.80;;
17890;SDS011;9071;48.220;14.480;2023-08-07T05:04:46;1.50;;;0.80;;
17890;SDS011;9071;48.220;14.480;2023-08-07T05:09:50;0.90;;;0.80;;
17890;SDS011;9071;48.220;14.480;2023-08-07T05:14:52;1.07;;;0.80;;
17890;SDS011;9071;48.220;14.480;2023-08-07T05:19:54;1.03;;;0.70;;
17890;SDS011;9071;48.220;14.480;2023-08-07T05:24:57;0.70;;;0.70;;
17890;SDS011;9071;48.220;14.480;2023-08-07T05:29:59;0.80;;;0.80;;
17890;SDS011;9071;48.220;14.480;2023-08-07T05:35:02;1.43;;;1.13;;
17890;SDS011;9071;48.220;14.480;2023-08-07T05:40:06;1.37;;;1.00;;
17890;SDS011;9071;48.220;14.480;2023-08-07T05:45:12;1.80;;;1.27;;
17890;SDS011;9071;48.220;14.480;2023-08-07T05:50:14;1.40;;;1.00;;
17890;SDS011;9071;48.220;14.480;2023-08-07T05:55:17;3.60;;;1.00;;
17890;SDS011;9071;48.220;14.480;2023-08-07T06:00:19;1.73;;;1.00;;
17890;SDS011;9071;48.220;14.480;2023-08-07T06:05:21;2.10;;;1.20;;
17890;SDS011;9071;48.220;14.480;2023-08-07T06:10:25;2.53;;;1.20;;
17890;SDS011;9071;48.220;14.480;2023-08-07T06:15:28;2.30;;;1.20;;
17890;SDS011;9071;48.220;14.480;2023-08-07T06:20:31;6.00;;;1.70;;
17890;SDS011;9071;48.220;14.480;2023-08-07T06:25:34;2.90;;;1.47;;
17890;SDS011;9071;48.220;14.480;2023-08-07T06:30:36;4.87;;;1.50;;
17890;SDS011;9071;48.220;14.480;2023-08-07T06:35:38;3.60;;;1.40;;
17890;SDS011;9071;48.220;14.480;2023-08-07T06:40:44;2.93;;;1.37;;
17890;SDS011;9071;48.220;14.480;2023-08-07T06:45:46;2.63;;;1.57;;
17890;SDS011;9071;48.220;14.480;2023-08-07T06:50:48;1.47;;;1.20;;
17890;SDS011;9071;48.220;14.480;2023-08-07T06:55:52;2.57;;;1.40;;
17890;SDS011;9071;48.220;14.480;2023-08-07T07:00:54;2.40;;;1.60;;
17890;SDS011;9071;48.220;14.480;2023-08-07T07:05:56;1.80;;;1.30;;
17890;SDS011;9071;48.220;14.480;2023-08-07T07:11:00;2.53;;;1.23;;
17890;SDS011;9071;48.220;14.480;2023-08-07T07:16:03;1.70;;;1.37;;
17890;SDS011;9071;48.220;14.480;2023-08-07T07:21:05;2.47;;;1.43;;
17890;SDS011;9071;48.220;14.480;2023-08-07T07:26:08;2.00;;;1.47;;
17890;SDS011;9071;48.220;14.480;2023-08-07T07:31:10;3.07;;;1.37;;
17890;SDS011;9071;48.220;14.480;2023-08-07T07:36:16;2.17;;;1.37;;
17890;SDS011;9071;48.220;14.480;2023-08-07T07:41:21;2.47;;;1.50;;
17890;SDS011;9071;48.220;14.480;2023-08-07T07:46:24;2.40;;;1.47;;
17890;SDS011;9071;48.220;14.480;2023-08-07T07:51:27;4.23;;;1.57;;
17890;SDS011;9071;48.220;14.480;2023-08-07T07:56:30;3.43;;;1.70;;
17890;SDS011;9071;48.220;14.480;2023-08-07T08:01:32;3.87;;;1.93;;
17890;SDS011;9071;48.220;14.480;2023-08-07T08:06:36;3.10;;;1.67;;
17890;SDS011;9071;48.220;14.480;2023-08-07T08:11:40;2.27;;;1.50;;
17890;SDS011;9071;48.220;14.480;2023-08-07T08:16:42;2.00;;;1.50;;
17890;SDS011;9071;48.220;14.480;2023-08-07T08:21:44;3.73;;;1.73;;
17890;SDS011;9071;48.220;14.480;2023-08-07T08:26:47;2.83;;;1.40;;
17890;SDS011;9071;48.220;14.480;2023-08-07T08:31:49;2.00;;;1.60;;
17890;SDS011;9071;48.220;14.480;2023-08-07T08:36:54;3.03;;;2.07;;
17890;SDS011;9071;48.220;14.480;2023-08-07T08:41:58;3.10;;;1.70;;
17890;SDS011;9071;48.220;14.480;2023-08-07T08:47:01;6.17;;;1.90;;
17890;SDS011;9071;48.220;14.480;2023-08-07T08:52:03;4.60;;;2.10;;
17890;SDS011;9071;48.220;14.480;2023-08-07T08:57:08;2.37;;;1.73;;
17890;SDS011;9071;48.220;14.480;2023-08-07T09:02:12;3.70;;;1.77;;
17890;SDS011;9071;48.220;14.480;2023-08-07T09:07:15;4.90;;;2.30;;
17890;SDS011;9071;48.220;14.480;2023-08-07T09:12:20;4.30;;;2.30;;
17890;SDS011;9071;48.220;14.480;2023-08-07T09:17:25;3.33;;;2.13;;
17890;SDS011;9071;48.220;14.480;2023-08-07T09:22:29;3.43;;;1.90;;
17890;SDS011;9071;48.220;14.480;2023-08-07T09:27:33;4.03;;;2.13;;
17890;SDS011;9071;48.220;14.480;2023-08-07T09:32:37;2.93;;;1.90;;
17890;SDS011;9071;48.220;14.480;2023-08-07T09:37:41;4.73;;;2.10;;
17890;SDS011;9071;48.220;14.480;2023-08-07T09:42:46;3.20;;;2.10;;
17890;SDS011;9071;48.220;14.480;2023-08-07T09:47:59;4.67;;;1.90;;
17890;SDS011;9071;48.220;14.480;2023-08-07T09:53:01;3.43;;;2.10;;
17890;SDS011;9071;48.220;14.480;2023-08-07T09:58:04;2.83;;;2.40;;
17890;SDS011;9071;48.220;14.480;2023-08-07T10:03:09;3.30;;;2.03;;
17890;SDS011;9071;48.220;14.480;2023-08-07T10:08:11;5.63;;;2.30;;
17890;SDS011;9071;48.220;14.480;2023-08-07T10:13:15;4.70;;;2.33;;
17890;SDS011;9071;48.220;14.480;2023-08-07T10:18:17;2.83;;;1.80;;
17890;SDS011;9071;48.220;14.480;2023-08-07T10:23:21;4.17;;;2.03;;
17890;SDS011;9071;48.220;14.480;2023-08-07T10:28:25;4.33;;;2.30;;
17890;SDS011;9071;48.220;14.480;2023-08-07T10:33:28;5.87;;;2.37;;
17890;SDS011;9071;48.220;14.480;2023-08-07T10:38:30;4.03;;;2.30;;
17890;SDS011;9071;48.220;14.480;2023-08-07T10:43:37;3.37;;;2.47;;
17890;SDS011;9071;48.220;14.480;2023-08-07T10:48:41;3.47;;;2.20;;
17890;SDS011;9071;48.220;14.480;2023-08-07T10:53:44;2.67;;;2.00;;
17890;SDS011;9071;48.220;14.480;2023-08-07T10:58:50;3.87;;;2.27;;
17890;SDS011;9071;48.220;14.480;2023-08-07T11:03:53;3.13;;;2.20;;
17890;SDS011;9071;48.220;14.480;2023-08-07T11:08:56;3.37;;;2.10;;
17890;SDS011;9071;48.220;14.480;2023-08-07T11:14:00;3.53;;;2.40;;
17890;SDS011;9071;48.220;14.480;2023-08-07T11:19:03;9.13;;;2.57;;
17890;SDS011;9071;48.220;14.480;2023-08-07T11:24:06;4.97;;;2.50;;
17890;SDS011;9071;48.220;14.480;2023-08-07T11:29:10;2.63;;;2.00;;
17890;SDS011;9071;48.220;14.480;2023-08-07T11:34:13;3.30;;;2.00;;
17890;SDS011;9071;48.220;14.480;2023-08-07T11:39:15;4.10;;;2.00;;
17890;SDS011;9071;48.220;14.480;2023-08-07T11:44:19;2.80;;;2.13;;
17890;SDS011;9071;48.220;14.480;2023-08-07T11:49:21;2.73;;;1.93;;
17890;SDS011;9071;48.220;14.480;2023-08-07T11:54:23;2.57;;;1.87;;
17890;SDS011;9071;48.220;14.480;2023-08-07T11:59:27;3.83;;;2.00;;
17890;SDS011;9071;48.220;14.480;2023-08-07T12:04:30;4.75;;;2.83;;
17890;SDS011;9071;48.220;14.480;2023-08-07T12:09:36;6.27;;;4.60;;
17890;SDS011;9071;48.220;14.480;2023-08-07T12:14:40;5.97;;;2.90;;
17890;SDS011;9071;48.220;14.480;2023-08-07T12:19:42;4.53;;;2.40;;
17890;SDS011;9071;48.220;14.480;2023-08-07T12:24:46;3.97;;;2.27;;
17890;SDS011;9071;48.220;14.480;2023-08-07T12:29:50;3.77;;;2.57;;
17890;SDS011;9071;48.220;14.480;2023-08-07T12:34:52;2.70;;;2.50;;
17890;SDS011;9071;48.220;14.480;2023-08-07T12:39:54;4.65;;;2.40;;
17890;SDS011;9071;48.220;14.480;2023-08-07T12:44:57;3.95;;;2.35;;
17890;SDS011;9071;48.220;14.480;2023-08-07T12:49:59;5.00;;;2.55;;
17890;SDS011;9071;48.220;14.480;2023-08-07T12:55:01;5.82;;;2.38;;
17890;SDS011;9071;48.220;14.480;2023-08-07T13:00:08;5.38;;;2.80;;
17890;SDS011;9071;48.220;14.480;2023-08-07T13:05:13;6.00;;;2.83;;
17890;SDS011;9071;48.220;14.480;2023-08-07T13:10:17;5.43;;;2.63;;
17890;SDS011;9071;48.220;14.480;2023-08-07T13:15:20;5.30;;;2.63;;
17890;SDS011;9071;48.220;14.480;2023-08-07T13:20:22;8.95;;;3.30;;
17890;SDS011;9071;48.220;14.480;2023-08-07T13:25:26;5.40;;;2.50;;
17890;SDS011;9071;48.220;14.480;2023-08-07T13:30:30;10.40;;;2.60;;
17890;SDS011;9071;48.220;14.480;2023-08-07T13:35:32;4.75;;;2.33;;
17890;SDS011;9071;48.220;14.480;2023-08-07T13:40:34;4.22;;;2.30;;
17890;SDS011;9071;48.220;14.480;2023-08-07T13:45:37;6.43;;;2.67;;
17890;SDS011;9071;48.220;14.480;2023-08-07T13:50:39;3.35;;;2.50;;
17890;SDS011;9071;48.220;14.480;2023-08-07T13:55:42;5.07;;;2.97;;
17890;SDS011;9071;48.220;14.480;2023-08-07T14:00:46;3.72;;;2.40;;
17890;SDS011;9071;48.220;14.480;2023-08-07T14:05:48;5.47;;;2.53;;
17890;SDS011;9071;48.220;14.480;2023-08-07T14:10:51;3.47;;;2.70;;
17890;SDS011;9071;48.220;14.480;2023-08-07T14:15:54;4.93;;;2.03;;
17890;SDS011;9071;48.220;14.480;2023-08-07T14:20:56;5.32;;;2.40;;
17890;SDS011;9071;48.220;14.480;2023-08-07T14:25:58;6.05;;;2.58;;
17890;SDS011;9071;48.220;14.480;2023-08-07T14:31:05;6.53;;;2.47;;
17890;SDS011;9071;48.220;14.480;2023-08-07T14:36:08;5.95;;;2.80;;
17890;SDS011;9071;48.220;14.480;2023-08-07T14:41:10;3.25;;;2.25;;
17890;SDS011;9071;48.220;14.480;2023-08-07T14:46:13;5.00;;;2.45;;
17890;SDS011;9071;48.220;14.480;2023-08-07T14:51:17;5.45;;;2.58;;
17890;SDS011;9071;48.220;14.480;2023-08-07T14:56:19;4.97;;;2.25;;
17890;SDS011;9071;48.220;14.480;2023-08-07T15:01:23;8.13;;;2.83;;
17890;SDS011;9071;48.220;14.480;2023-08-07T15:06:25;5.50;;;1.95;;
17890;SDS011;9071;48.220;14.480;2023-08-07T15:11:27;5.82;;;2.65;;
17890;SDS011;9071;48.220;14.480;2023-08-07T15:16:30;3.80;;;1.85;;
17890;SDS011;9071;48.220;14.480;2023-08-07T15:21:33;8.23;;;2.92;;
17890;SDS011;9071;48.220;14.480;2023-08-07T15:26:35;6.07;;;2.42;;
17890;SDS011;9071;48.220;14.480;2023-08-07T15:31:38;3.05;;;1.65;;
17890;SDS011;9071;48.220;14.480;2023-08-07T15:36:40;9.63;;;2.17;;
17890;SDS011;9071;48.220;14.480;2023-08-07T15:41:42;5.45;;;2.00;;
17890;SDS011;9071;48.220;14.480;2023-08-07T15:46:46;12.02;;;2.35;;
17890;SDS011;9071;48.220;14.480;2023-08-07T15:51:48;5.55;;;2.45;;
17890;SDS011;9071;48.220;14.480;2023-08-07T15:56:50;2.85;;;1.60;;
17890;SDS011;9071;48.220;14.480;2023-08-07T16:01:53;4.53;;;1.23;;
17890;SDS011;9071;48.220;14.480;2023-08-07T16:06:56;3.00;;;1.60;;
17890;SDS011;9071;48.220;14.480;2023-08-07T16:11:58;2.97;;;1.40;;
17890;SDS011;9071;48.220;14.480;2023-08-07T16:17:01;2.45;;;1.30;;
17890;SDS011;9071;48.220;14.480;2023-08-07T16:22:04;2.72;;;1.40;;
17890;SDS011;9071;48.220;14.480;2023-08-07T16:27:06;3.53;;;1.50;;
17890;SDS011;9071;48.220;14.480;2023-08-07T16:32:10;1.25;;;1.15;;
17890;SDS011;9071;48.220;14.480;2023-08-07T16:37:12;1.95;;;1.40;;
17890;SDS011;9071;48.220;14.480;2023-08-07T16:42:14;5.13;;;1.60;;
17890;SDS011;9071;48.220;14.480;2023-08-07T16:47:17;3.03;;;2.20;;
17890;SDS011;9071;48.220;14.480;2023-08-07T16:52:19;4.28;;;1.65;;
17890;SDS011;9071;48.220;14.480;2023-08-07T16:57:22;4.25;;;1.80;;
17890;SDS011;9071;48.220;14.480;2023-08-07T17:02:25;6.28;;;1.92;;
17890;SDS011;9071;48.220;14.480;2023-08-07T17:07:27;2.97;;;1.83;;
17890;SDS011;9071;48.220;14.480;2023-08-07T17:12:29;3.47;;;1.30;;
17890;SDS011;9071;48.220;14.480;2023-08-07T17:17:33;5.40;;;2.28;;
17890;SDS011;9071;48.220;14.480;2023-08-07T17:22:35;1.65;;;1.30;;
17890;SDS011;9071;48.220;14.480;2023-08-07T17:27:37;1.75;;;1.50;;
17890;SDS011;9071;48.220;14.480;2023-08-07T17:32:40;2.45;;;1.50;;
17890;SDS011;9071;48.220;14.480;2023-08-07T17:37:42;5.60;;;2.70;;
17890;SDS011;9071;48.220;14.480;2023-08-07T17:42:44;2.22;;;1.70;;
17890;SDS011;9071;48.220;14.480;2023-08-07T17:47:48;3.33;;;2.15;;
17890;SDS011;9071;48.220;14.480;2023-08-07T17:52:50;5.18;;;2.72;;
17890;SDS011;9071;48.220;14.480;2023-08-07T17:57:52;3.50;;;2.15;;
17890;SDS011;9071;48.220;14.480;2023-08-07T18:02:55;3.47;;;2.00;;
17890;SDS011;9071;48.220;14.480;2023-08-07T18:07:57;2.30;;;2.03;;
17890;SDS011;9071;48.220;14.480;2023-08-07T18:12:59;2.80;;;2.00;;
17890;SDS011;9071;48.220;14.480;2023-08-07T18:18:03;2.73;;;1.90;;
17890;SDS011;9071;48.220;14.480;2023-08-07T18:23:05;2.27;;;2.07;;
17890;SDS011;9071;48.220;14.480;2023-08-07T18:28:07;2.20;;;1.70;;
17890;SDS011;9071;48.220;14.480;2023-08-07T18:33:11;2.57;;;1.83;;
17890;SDS011;9071;48.220;14.480;2023-08-07T18:38:14;2.47;;;1.97;;
17890;SDS011;9071;48.220;14.480;2023-08-07T18:43:16;3.10;;;1.90;;
17890;SDS011;9071;48.220;14.480;2023-08-07T18:48:20;4.70;;;2.40;;
17890;SDS011;9071;48.220;14.480;2023-08-07T18:53:22;3.57;;;2.07;;
17890;SDS011;9071;48.220;14.480;2023-08-07T18:58:24;2.20;;;1.43;;
17890;SDS011;9071;48.220;14.480;2023-08-07T19:03:27;3.17;;;1.30;;
17890;SDS011;9071;48.220;14.480;2023-08-07T19:08:29;3.20;;;1.20;;
17890;SDS011;9071;48.220;14.480;2023-08-07T19:13:32;1.10;;;1.00;;
17890;SDS011;9071;48.220;14.480;2023-08-07T19:18:37;1.97;;;1.43;;
17890;SDS011;9071;48.220;14.480;2023-08-07T19:23:40;1.30;;;1.00;;
17890;SDS011;9071;48.220;14.480;2023-08-07T19:28:42;2.13;;;0.83;;
17890;SDS011;9071;48.220;14.480;2023-08-07T19:33:45;1.33;;;1.03;;
17890;SDS011;9071;48.220;14.480;2023-08-07T19:38:47;2.10;;;1.20;;
17890;SDS011;9071;48.220;14.480;2023-08-07T19:43:49;1.83;;;1.43;;
17890;SDS011;9071;48.220;14.480;2023-08-07T19:48:53;2.80;;;1.70;;
17890;SDS011;9071;48.220;14.480;2023-08-07T19:53:55;4.77;;;1.60;;
17890;SDS011;9071;48.220;14.480;2023-08-07T19:58:57;3.03;;;1.60;;
17890;SDS011;9071;48.220;14.480;2023-08-07T20:04:03;2.57;;;1.80;;
17890;SDS011;9071;48.220;14.480;2023-08-07T20:09:05;3.17;;;1.77;;
17890;SDS011;9071;48.220;14.480;2023-08-07T20:14:07;3.00;;;1.73;;
17890;SDS011;9071;48.220;14.480;2023-08-07T20:19:10;2.53;;;1.73;;
17890;SDS011;9071;48.220;14.480;2023-08-07T20:24:12;2.57;;;1.70;;
17890;SDS011;9071;48.220;14.480;2023-08-07T20:29:14;4.57;;;1.87;;
17890;SDS011;9071;48.220;14.480;2023-08-07T20:34:18;7.13;;;2.30;;
17890;SDS011;9071;48.220;14.480;2023-08-07T20:39:20;4.43;;;3.10;;
17890;SDS011;9071;48.220;14.480;2023-08-07T20:44:22;5.60;;;2.77;;
17890;SDS011;9071;48.220;14.480;2023-08-07T20:49:26;3.23;;;1.70;;
17890;SDS011;9071;48.220;14.480;2023-08-07T20:54:28;2.63;;;1.47;;
17890;SDS011;9071;48.220;14.480;2023-08-07T20:59:30;2.27;;;1.80;;
17890;SDS011;9071;48.220;14.480;2023-08-07T21:04:34;3.10;;;1.93;;
17890;SDS011;9071;48.220;14.480;2023-08-07T21:09:36;2.80;;;2.50;;
17890;SDS011;9071;48.220;14.480;2023-08-07T21:14:38;7.67;;;6.30;;
17890;SDS011;9071;48.220;14.480;2023-08-07T21:19:41;5.53;;;3.70;;
17890;SDS011;9071;48.220;14.480;2023-08-07T21:24:43;5.30;;;2.80;;
17890;SDS011;9071;48.220;14.480;2023-08-07T21:29:45;4.73;;;2.57;;
17890;SDS011;9071;48.220;14.480;2023-08-07T21:34:49;3.67;;;2.27;;
17890;SDS011;9071;48.220;14.480;2023-08-07T21:39:51;4.93;;;2.60;;
17890;SDS011;9071;48.220;14.480;2023-08-07T21:44:53;4.03;;;2.60;;
17890;SDS011;9071;48.220;14.480;2023-08-07T21:49:56;3.83;;;3.03;;
17890;SDS011;9071;48.220;14.480;2023-08-07T21:54:59;3.57;;;2.73;;
17890;SDS011;9071;48.220;14.480;2023-08-07T22:00:01;4.83;;;2.67;;
17890;SDS011;9071;48.220;14.480;2023-08-07T22:05:07;3.23;;;2.60;;
17890;SDS011;9071;48.220;14.480;2023-08-07T22:10:10;5.33;;;2.80;;
17890;SDS011;9071;48.220;14.480;2023-08-07T22:15:13;3.70;;;2.60;;
17890;SDS011;9071;48.220;14.480;2023-08-07T22:20:17;5.17;;;2.73;;
17890;SDS011;9071;48.220;14.480;2023-08-07T22:25:19;2.47;;;2.03;;
17890;SDS011;9071;48.220;14.480;2023-08-07T22:30:21;3.70;;;2.30;;
17890;SDS011;9071;48.220;14.480;2023-08-07T22:35:25;3.87;;;2.83;;
17890;SDS011;9071;48.220;14.480;2023-08-07T22:40:27;3.17;;;2.40;;
17890;SDS011;9071;48.220;14.480;2023-08-07T22:45:29;5.43;;;2.53;;
17890;SDS011;9071;48.220;14.480;2023-08-07T22:50:32;3.67;;;2.33;;
17890;SDS011;9071;48.220;14.480;2023-08-07T22:55:34;5.97;;;2.50;;
17890;SDS011;9071;48.220;14.480;2023-08-07T23:00:36;3.03;;;2.20;;
17890;SDS011;9071;48.220;14.480;2023-08-07T23:05:40;2.83;;;2.23;;
17890;SDS011;9071;48.220;14.480;2023-08-07T23:10:42;2.70;;;2.10;;
17890;SDS011;9071;48.220;14.480;2023-08-07T23:15:44;2.83;;;2.10;;
17890;SDS011;9071;48.220;14.480;2023-08-07T23:20:48;3.73;;;2.90;;
17890;SDS011;9071;48.220;14.480;2023-08-07T23:25:50;4.67;;;2.53;;
17890;SDS011;9071;48.220;14.480;2023-08-07T23:30:52;3.03;;;2.40;;
17890;SDS011;9071;48.220;14.480;2023-08-07T23:35:56;3.67;;;2.70;;
17890;SDS011;9071;48.220;14.480;2023-08-07T23:40:58;4.13;;;2.20;;
17890;SDS011;9071;48.220;14.480;2023-08-07T23:46:00;4.43;;;2.67;;
17890;SDS011;9071;48.220;14.480;2023-08-07T23:51:04;6.13;;;3.17;;
17890;SDS011;9071;48.220;14.480;2023-08-07T23:56:06;4.40;;;3.07;;
